Time;durP1;ratioP1;P1;durP2;ratioP2;P2;SDS_P1;SDS_P2;PMS_P1;PMS_P2;Temp;Humidity;BMP_temperature;BMP_pressure;BME280_temperature;BME280_humidity;BME280_pressure;Samples;Min_cycle;Max_cycle;Signal;HPM_P1;HPM_P2
2023/05/09 00:00:12;;;;;;;15.57;9.27;;;;;;;;;;2032886;29;20469;-91
2023/05/09 00:01:13;;;;;;;10.55;8.48;;;;;;;;;;2032904;29;20036;-91
2023/05/09 00:02:13;;;;;;;13.07;9.43;;;;;;;;;;2033067;29;20125;-92
2023/05/09 00:03:14;;;;;;;14.50;10.10;;;;;;;;;;2041051;29;20023;-91
2023/05/09 00:04:15;;;;;;;14.20;9.23;;;;;;;;;;2040443;29;20560;-90
2023/05/09 00:05:16;;;;;;;13.50;9.25;;;;;;;;;;2032960;29;20059;-90
2023/05/09 00:06:19;;;;;;;13.38;9.00;;;;;;;;;;2040596;29;20424;-92
2023/05/09 00:07:19;;;;;;;13.23;9.57;;;;;;;;;;2040883;29;20132;-91
2023/05/09 00:08:20;;;;;;;13.13;9.40;;;;;;;;;;2041064;29;20035;-91
2023/05/09 00:09:20;;;;;;;11.90;9.52;;;;;;;;;;2040876;29;20032;-90
2023/05/09 00:10:21;;;;;;;12.05;10.15;;;;;;;;;;2033249;29;20119;-90
2023/05/09 00:11:21;;;;;;;12.50;9.18;;;;;;;;;;2032868;29;20562;-90
2023/05/09 00:12:22;;;;;;;12.95;9.60;;;;;;;;;;2040957;29;20174;-93
2023/05/09 00:13:23;;;;;;;11.50;8.98;;;;;;;;;;2040391;29;20034;-91
2023/05/09 00:14:24;;;;;;;11.52;9.43;;;;;;;;;;2032707;29;20024;-91
2023/05/09 00:15:25;;;;;;;13.35;9.40;;;;;;;;;;2040845;29;20028;-90
2023/05/09 00:16:25;;;;;;;14.43;10.05;;;;;;;;;;2040255;29;20032;-90
2023/05/09 00:17:27;;;;;;;12.82;10.23;;;;;;;;;;2032501;29;20024;-90
2023/05/09 00:18:28;;;;;;;13.88;9.60;;;;;;;;;;2032770;29;20032;-90
2023/05/09 00:19:29;;;;;;;13.40;10.52;;;;;;;;;;2032307;29;20031;-90
2023/05/09 00:20:29;;;;;;;12.18;9.40;;;;;;;;;;2040130;29;20055;-90
2023/05/09 00:21:30;;;;;;;15.35;10.50;;;;;;;;;;2048757;29;20047;-91
2023/05/09 00:22:30;;;;;;;11.70;10.10;;;;;;;;;;2040169;29;20487;-90
2023/05/09 00:23:30;;;;;;;13.80;10.60;;;;;;;;;;2040169;29;20472;-89
2023/05/09 00:24:31;;;;;;;14.65;10.23;;;;;;;;;;2040495;29;20024;-91
2023/05/09 00:25:32;;;;;;;17.38;10.90;;;;;;;;;;2040139;29;20515;-90
2023/05/09 00:26:32;;;;;;;13.63;11.13;;;;;;;;;;2040218;29;20579;-89
2023/05/09 00:27:33;;;;;;;16.33;11.27;;;;;;;;;;2040091;29;20036;-89
2023/05/09 00:28:33;;;;;;;16.02;11.18;;;;;;;;;;2040489;29;20107;-90
2023/05/09 00:29:34;;;;;;;15.32;11.68;;;;;;;;;;2048921;29;20102;-89
2023/05/09 00:30:34;;;;;;;15.60;11.70;;;;;;;;;;2040251;29;20034;-89
2023/05/09 00:31:35;;;;;;;15.93;11.60;;;;;;;;;;2032246;29;20059;-90
2023/05/09 00:32:35;;;;;;;13.85;10.93;;;;;;;;;;2032475;29;20055;-90
2023/05/09 00:33:36;;;;;;;18.98;11.73;;;;;;;;;;2032290;29;20435;-90
2023/05/09 00:34:36;;;;;;;15.07;10.85;;;;;;;;;;1677258;29;10476279;-90
2023/05/09 00:35:37;;;;;;;15.35;10.45;;;;;;;;;;2032154;29;20159;-90
2023/05/09 00:36:37;;;;;;;16.83;11.35;;;;;;;;;;2039846;29;20076;-90
2023/05/09 00:37:38;;;;;;;17.38;11.00;;;;;;;;;;2048031;29;20023;-90
2023/05/09 00:38:38;;;;;;;13.27;10.27;;;;;;;;;;2032203;29;20028;-91
2023/05/09 00:39:38;;;;;;;13.70;10.48;;;;;;;;;;2032069;29;20043;-89
2023/05/09 00:40:39;;;;;;;17.70;11.00;;;;;;;;;;2041007;29;20073;-89
2023/05/09 00:41:39;;;;;;;15.93;11.70;;;;;;;;;;2044714;29;20044;-88
2023/05/09 00:42:40;;;;;;;16.85;11.60;;;;;;;;;;2033190;29;20491;-90
2023/05/09 00:43:40;;;;;;;16.65;11.45;;;;;;;;;;2040214;29;20027;-90
2023/05/09 00:44:41;;;;;;;15.32;10.95;;;;;;;;;;2040524;29;20173;-89
2023/05/09 00:45:42;;;;;;;15.85;11.00;;;;;;;;;;2040102;29;20031;-88
2023/05/09 00:46:46;;;;;;;17.55;11.50;;;;;;;;;;1690750;29;10254402;-89
2023/05/09 00:47:46;;;;;;;17.35;11.65;;;;;;;;;;2040465;29;20411;-89
2023/05/09 00:48:47;;;;;;;15.32;11.15;;;;;;;;;;2048966;29;20044;-90
2023/05/09 00:49:47;;;;;;;15.63;11.32;;;;;;;;;;2048601;29;20023;-90
2023/05/09 00:50:51;;;;;;;13.90;11.00;;;;;;;;;;2048914;29;20408;-89
2023/05/09 00:51:54;;;;;;;13.73;10.80;;;;;;;;;;2040175;29;20039;-87
2023/05/09 00:52:54;;;;;;;13.10;10.52;;;;;;;;;;2040195;29;20019;-88
2023/05/09 00:53:55;;;;;;;19.83;11.38;;;;;;;;;;2040088;29;20035;-90
2023/05/09 00:54:56;;;;;;;13.93;11.35;;;;;;;;;;2040003;29;20108;-89
2023/05/09 00:55:57;;;;;;;18.73;11.48;;;;;;;;;;2048711;29;20041;-90
2023/05/09 00:56:57;;;;;;;16.75;11.40;;;;;;;;;;2039849;29;20027;-89
2023/05/09 00:57:58;;;;;;;19.00;11.15;;;;;;;;;;2040067;29;20110;-88
2023/05/09 00:58:59;;;;;;;15.07;12.38;;;;;;;;;;2039900;29;20459;-89
2023/05/09 01:00:00;;;;;;;18.00;11.55;;;;;;;;;;2031626;29;20024;-89
2023/05/09 01:01:02;;;;;;;18.52;11.90;;;;;;;;;;2031944;29;20131;-89
2023/05/09 01:02:02;;;;;;;16.50;10.90;;;;;;;;;;2032861;29;20527;-89
2023/05/09 01:03:03;;;;;;;17.52;11.90;;;;;;;;;;2040743;29;20059;-90
2023/05/09 01:04:04;;;;;;;16.90;11.68;;;;;;;;;;2040970;29;20055;-89
2023/05/09 01:05:05;;;;;;;13.93;10.98;;;;;;;;;;2040477;29;20050;-90
2023/05/09 01:06:08;;;;;;;20.17;12.52;;;;;;;;;;2040625;29;20448;-91
2023/05/09 01:07:24;;;;;;;23.08;11.18;;;;;;;;;;2046324;29;20031;-90
2023/05/09 01:08:40;;;;;;;16.98;11.15;;;;;;;;;;2051542;29;20023;-91
2023/05/09 01:09:53;;;;;;;15.15;10.75;;;;;;;;;;2049476;28;20031;-89
2023/05/09 01:11:10;;;;;;;15.43;11.20;;;;;;;;;;2042227;29;20028;-90
2023/05/09 01:12:19;;;;;;;16.63;11.05;;;;;;;;;;2045198;29;20050;-91
2023/05/09 01:13:27;;;;;;;22.38;12.70;;;;;;;;;;2042036;29;20020;-91
2023/05/09 01:14:51;;;;;;;17.85;11.20;;;;;;;;;;2039989;29;20027;-91
2023/05/09 01:16:18;;;;;;;17.20;11.75;;;;;;;;;;2018752;29;20040;-88
2023/05/09 01:17:51;;;;;;;16.05;11.70;;;;;;;;;;2048444;29;20079;-89
2023/05/09 01:19:19;;;;;;;15.45;11.65;;;;;;;;;;2039916;29;20019;-89
2023/05/09 01:20:46;;;;;;;16.83;11.52;;;;;;;;;;2043796;29;20074;-89
2023/05/09 01:21:48;;;;;;;16.05;11.38;;;;;;;;;;2041692;29;20039;-90
2023/05/09 01:22:59;;;;;;;20.92;12.07;;;;;;;;;;2048540;29;20034;-90
2023/05/09 01:24:24;;;;;;;16.98;12.25;;;;;;;;;;2048542;29;20037;-91
2023/05/09 01:25:33;;;;;;;17.52;11.93;;;;;;;;;;2045213;29;20070;-90
2023/05/09 01:26:51;;;;;;;19.75;12.63;;;;;;;;;;2051498;28;20030;-90
2023/05/09 01:28:06;;;;;;;20.83;11.55;;;;;;;;;;2050528;28;20099;-90
2023/05/09 01:29:34;;;;;;;17.52;11.80;;;;;;;;;;2050166;28;20135;-90
2023/05/09 01:30:36;;;;;;;19.20;12.35;;;;;;;;;;2046557;29;20107;-90
2023/05/09 01:31:40;;;;;;;19.52;13.10;;;;;;;;;;2048505;29;20034;-90
2023/05/09 01:32:42;;;;;;;19.23;12.45;;;;;;;;;;2041519;29;20114;-89
2023/05/09 01:33:45;;;;;;;18.00;12.00;;;;;;;;;;1694805;29;10315471;-86
2023/05/09 01:34:49;;;;;;;18.23;12.27;;;;;;;;;;2040109;29;20067;-90
2023/05/09 01:35:54;;;;;;;18.38;12.10;;;;;;;;;;2032029;29;20032;-87
2023/05/09 01:36:58;;;;;;;18.08;11.95;;;;;;;;;;2040383;29;20134;-90
2023/05/09 01:37:59;;;;;;;19.35;12.70;;;;;;;;;;2039477;29;20508;-90
2023/05/09 01:39:03;;;;;;;16.30;12.02;;;;;;;;;;2039679;29;20032;-90
2023/05/09 01:40:09;;;;;;;17.98;12.68;;;;;;;;;;1695522;29;10103705;-90
2023/05/09 01:41:13;;;;;;;19.33;12.65;;;;;;;;;;2040315;29;20047;-90
2023/05/09 01:42:15;;;;;;;19.35;12.63;;;;;;;;;;2039591;29;20534;-90
2023/05/09 01:43:18;;;;;;;15.85;12.75;;;;;;;;;;2039739;29;20028;-90
2023/05/09 01:44:21;;;;;;;19.00;13.43;;;;;;;;;;2039458;29;20075;-90
2023/05/09 01:45:23;;;;;;;17.08;12.18;;;;;;;;;;2039391;29;20031;-89
2023/05/09 01:46:25;;;;;;;20.50;12.30;;;;;;;;;;2039317;29;20094;-89
2023/05/09 01:47:26;;;;;;;16.50;12.55;;;;;;;;;;2031664;29;20467;-89
2023/05/09 01:48:30;;;;;;;16.70;11.30;;;;;;;;;;2039576;29;20508;-90
2023/05/09 01:49:32;;;;;;;16.98;12.10;;;;;;;;;;2039551;29;20658;-88
2023/05/09 01:50:34;;;;;;;15.57;11.57;;;;;;;;;;2039659;29;20510;-90
2023/05/09 01:51:37;;;;;;;21.90;12.10;;;;;;;;;;2048105;29;20031;-88
2023/05/09 01:52:40;;;;;;;14.35;11.65;;;;;;;;;;2047809;29;20481;-88
2023/05/09 01:53:41;;;;;;;17.85;11.93;;;;;;;;;;2048230;29;20322;-89
2023/05/09 01:54:43;;;;;;;18.83;12.68;;;;;;;;;;2039356;29;20110;-91
2023/05/09 01:55:45;;;;;;;17.02;11.57;;;;;;;;;;2031815;29;20493;-91
2023/05/09 01:56:46;;;;;;;14.73;10.88;;;;;;;;;;2031784;29;20039;-90
2023/05/09 01:57:47;;;;;;;15.68;11.13;;;;;;;;;;2039497;29;20412;-91
2023/05/09 01:58:50;;;;;;;16.08;11.82;;;;;;;;;;2047799;29;20085;-90
2023/05/09 01:59:51;;;;;;;16.00;11.18;;;;;;;;;;2039176;29;20381;-90
2023/05/09 02:00:52;;;;;;;14.82;10.52;;;;;;;;;;2039681;29;20552;-93
2023/05/09 02:01:54;;;;;;;15.88;10.05;;;;;;;;;;2048324;29;20034;-91
2023/05/09 02:02:56;;;;;;;16.15;11.48;;;;;;;;;;2039768;29;20038;-92
2023/05/09 02:03:57;;;;;;;18.02;11.77;;;;;;;;;;2039308;29;20130;-91
2023/05/09 02:04:58;;;;;;;14.55;11.02;;;;;;;;;;2039865;29;20411;-91
2023/05/09 02:06:01;;;;;;;15.93;11.55;;;;;;;;;;2048235;29;20491;-91
2023/05/09 02:07:04;;;;;;;13.73;10.43;;;;;;;;;;2048254;29;20034;-92
2023/05/09 02:08:05;;;;;;;14.20;10.65;;;;;;;;;;2048255;29;20075;-92
2023/05/09 02:09:07;;;;;;;19.35;10.60;;;;;;;;;;2039483;29;20521;-91
2023/05/09 02:10:08;;;;;;;17.38;11.63;;;;;;;;;;2031771;29;20032;-91
2023/05/09 02:11:09;;;;;;;15.02;10.43;;;;;;;;;;2039678;29;20035;-90
2023/05/09 02:12:09;;;;;;;14.35;10.93;;;;;;;;;;2031657;29;20042;-90
2023/05/09 02:13:10;;;;;;;13.27;10.02;;;;;;;;;;2039726;29;20031;-91
2023/05/09 02:14:11;;;;;;;15.95;10.07;;;;;;;;;;2039536;29;20120;-92
2023/05/09 02:15:11;;;;;;;15.30;9.65;;;;;;;;;;2031120;29;20367;-91
2023/05/09 02:16:12;;;;;;;15.52;9.98;;;;;;;;;;2031597;29;20032;-89
2023/05/09 02:17:15;;;;;;;17.45;11.10;;;;;;;;;;2039546;29;20433;-92
2023/05/09 02:18:16;;;;;;;17.30;10.40;;;;;;;;;;2032112;29;20024;-92
2023/05/09 02:19:16;;;;;;;11.88;9.70;;;;;;;;;;2031385;29;20122;-91
2023/05/09 02:20:17;;;;;;;13.52;10.60;;;;;;;;;;2031613;29;20043;-91
2023/05/09 02:21:17;;;;;;;14.05;10.43;;;;;;;;;;2039588;29;20107;-91
2023/05/09 02:22:18;;;;;;;16.58;10.30;;;;;;;;;;2039577;29;20059;-91
2023/05/09 02:23:18;;;;;;;;;;;;;;;;;;2039941;29;20043;-91
2023/05/09 02:24:19;;;;;;;13.27;10.60;;;;;;;;;;2034717;29;19911;-90
2023/05/09 02:25:19;;;;;;;14.10;10.00;;;;;;;;;;2037039;29;20122;-89
2023/05/09 02:26:20;;;;;;;16.45;9.98;;;;;;;;;;2035054;29;20036;-91
2023/05/09 02:27:21;;;;;;;14.45;10.20;;;;;;;;;;2039345;29;20032;-91
2023/05/09 02:28:23;;;;;;;13.43;10.10;;;;;;;;;;2039592;29;20537;-91
2023/05/09 02:29:38;;;;;;;15.65;11.07;;;;;;;;;;2039861;29;20028;-90
2023/05/09 02:30:42;;;;;;;14.80;10.25;;;;;;;;;;2039328;29;20027;-90
2023/05/09 02:31:44;;;;;;;15.10;9.75;;;;;;;;;;2039907;29;20102;-91
2023/05/09 02:32:47;;;;;;;14.50;9.95;;;;;;;;;;2039542;29;20526;-91
2023/05/09 02:33:50;;;;;;;14.05;10.18;;;;;;;;;;2031467;29;20047;-91
2023/05/09 02:34:52;;;;;;;12.77;9.60;;;;;;;;;;2039255;29;20036;-92
2023/05/09 02:35:54;;;;;;;15.18;10.10;;;;;;;;;;2039402;29;20518;-91
2023/05/09 02:36:54;;;;;;;12.13;9.27;;;;;;;;;;1698878;29;10001287;-91
2023/05/09 02:37:57;;;;;;;15.90;10.38;;;;;;;;;;2047546;29;20747;-90
2023/05/09 02:38:58;;;;;;;14.48;10.07;;;;;;;;;;2047805;29;20111;-90
2023/05/09 02:39:59;;;;;;;19.58;9.73;;;;;;;;;;2039050;29;20455;-91
2023/05/09 02:40:59;;;;;;;14.30;9.57;;;;;;;;;;2039225;29;20088;-91
2023/05/09 02:42:08;;;;;;;12.93;9.50;;;;;;;;;;2039520;29;20119;-91
2023/05/09 02:43:09;;;;;;;13.85;10.05;;;;;;;;;;2040648;29;20546;-91
2023/05/09 02:44:09;;;;;;;14.73;9.82;;;;;;;;;;2039562;29;20056;-91
2023/05/09 02:45:10;;;;;;;15.32;11.05;;;;;;;;;;2039455;29;20120;-92
2023/05/09 02:46:11;;;;;;;14.15;10.43;;;;;;;;;;2039558;29;20101;-91
2023/05/09 02:47:11;;;;;;;14.73;9.43;;;;;;;;;;2039581;29;20110;-92
2023/05/09 02:48:12;;;;;;;15.75;9.40;;;;;;;;;;2031770;29;20047;-93
2023/05/09 02:49:12;;;;;;;14.80;10.38;;;;;;;;;;2040035;29;20475;-92
2023/05/09 02:50:13;;;;;;;14.02;9.68;;;;;;;;;;2039615;29;20074;-91
2023/05/09 02:51:13;;;;;;;13.85;9.25;;;;;;;;;;2039485;29;20035;-90
2023/05/09 02:52:14;;;;;;;13.95;10.40;;;;;;;;;;2039578;29;20043;-91
2023/05/09 02:53:14;;;;;;;13.98;9.25;;;;;;;;;;2047873;29;20027;-91
2023/05/09 02:54:15;;;;;;;14.00;9.85;;;;;;;;;;2050162;29;20038;-90
2023/05/09 02:55:15;;;;;;;13.77;9.73;;;;;;;;;;2050027;29;20102;-91
2023/05/09 02:56:16;;;;;;;11.63;9.25;;;;;;;;;;2040873;29;20155;-92
2023/05/09 02:57:16;;;;;;;14.95;9.80;;;;;;;;;;2032106;29;20024;-91
2023/05/09 02:58:17;;;;;;;15.60;10.02;;;;;;;;;;2032091;29;20437;-91
2023/05/09 02:59:18;;;;;;;11.55;9.07;;;;;;;;;;2032426;29;20055;-92
2023/05/09 03:00:20;;;;;;;12.65;9.00;;;;;;;;;;2039993;29;20491;-93
2023/05/09 03:01:20;;;;;;;11.57;8.40;;;;;;;;;;2040217;29;20044;-91
2023/05/09 03:02:22;;;;;;;14.27;9.27;;;;;;;;;;2031587;29;20031;-92
2023/05/09 03:03:24;;;;;;;12.65;8.75;;;;;;;;;;2039900;29;20031;-92
2023/05/09 03:04:25;;;;;;;15.48;9.07;;;;;;;;;;2048385;29;20031;-94
2023/05/09 03:05:25;;;;;;;11.25;7.63;;;;;;;;;;2039668;29;20023;-92
2023/05/09 03:06:26;;;;;;;11.55;8.55;;;;;;;;;;2039387;29;20031;-92
2023/05/09 03:07:26;;;;;;;13.15;8.20;;;;;;;;;;2039525;29;20034;-92
2023/05/09 03:08:27;;;;;;;10.75;8.05;;;;;;;;;;2039614;29;20443;-93
2023/05/09 03:09:29;;;;;;;13.18;8.02;;;;;;;;;;2039623;29;20356;-92
2023/05/09 03:10:30;;;;;;;12.05;8.82;;;;;;;;;;2031782;29;20032;-92
2023/05/09 03:11:30;;;;;;;11.93;8.48;;;;;;;;;;2031804;29;20051;-92
2023/05/09 03:12:31;;;;;;;13.38;8.60;;;;;;;;;;2031774;29;20035;-93
2023/05/09 03:13:31;;;;;;;10.88;8.20;;;;;;;;;;2039376;29;20038;-91
2023/05/09 03:14:34;;;;;;;10.20;7.82;;;;;;;;;;2039554;29;20027;-92
2023/05/09 03:15:35;;;;;;;16.50;8.77;;;;;;;;;;2042681;29;20072;-92
2023/05/09 03:16:36;;;;;;;10.18;7.97;;;;;;;;;;2056903;28;20011;-90
2023/05/09 03:17:36;;;;;;;9.80;7.80;;;;;;;;;;2044682;29;20016;-92
2023/05/09 03:18:37;;;;;;;11.57;8.20;;;;;;;;;;2038970;29;20074;-92
2023/05/09 03:19:37;;;;;;;11.27;8.13;;;;;;;;;;2039252;29;20601;-91
2023/05/09 03:20:38;;;;;;;11.55;8.60;;;;;;;;;;2038908;29;20070;-91
2023/05/09 03:21:38;;;;;;;10.27;7.85;;;;;;;;;;2038753;29;20472;-91
2023/05/09 03:22:39;;;;;;;10.70;8.38;;;;;;;;;;2039205;29;20047;-91
2023/05/09 03:23:42;;;;;;;12.18;8.80;;;;;;;;;;2039023;29;20102;-91
2023/05/09 03:24:43;;;;;;;10.10;7.78;;;;;;;;;;2031850;29;20147;-92
2023/05/09 03:25:43;;;;;;;10.70;7.75;;;;;;;;;;2039028;29;20043;-92
2023/05/09 03:26:50;;;;;;;10.63;8.60;;;;;;;;;;2048418;28;20094;-91
2023/05/09 03:27:51;;;;;;;11.98;7.93;;;;;;;;;;2047170;29;20050;-91
2023/05/09 03:28:52;;;;;;;10.90;8.27;;;;;;;;;;2048356;29;20015;-91
2023/05/09 03:29:54;;;;;;;13.10;8.45;;;;;;;;;;2056403;29;20031;-91
2023/05/09 03:30:54;;;;;;;11.18;8.07;;;;;;;;;;2048470;29;20032;-91
2023/05/09 03:31:55;;;;;;;10.55;8.77;;;;;;;;;;2041450;29;20088;-90
2023/05/09 03:32:55;;;;;;;14.18;9.00;;;;;;;;;;2049792;28;20044;-91
2023/05/09 03:33:56;;;;;;;13.90;8.77;;;;;;;;;;2058233;28;20035;-93
2023/05/09 03:34:58;;;;;;;10.25;7.82;;;;;;;;;;2058307;28;20125;-91
2023/05/09 03:36:00;;;;;;;10.30;7.70;;;;;;;;;;2056669;28;20015;-92
2023/05/09 03:37:00;;;;;;;14.52;8.25;;;;;;;;;;2053409;29;20047;-92
2023/05/09 03:38:00;;;;;;;12.57;8.15;;;;;;;;;;2048978;29;20083;-92
2023/05/09 03:39:01;;;;;;;12.43;8.50;;;;;;;;;;2041865;29;20052;-91
2023/05/09 03:40:04;;;;;;;11.18;7.97;;;;;;;;;;2042110;29;20089;-92
2023/05/09 03:41:05;;;;;;;15.18;8.20;;;;;;;;;;2049940;28;20026;-92
2023/05/09 03:42:05;;;;;;;12.27;8.95;;;;;;;;;;2054929;29;20475;-92
2023/05/09 03:43:06;;;;;;;11.13;8.30;;;;;;;;;;2040835;29;20115;-92
2023/05/09 03:44:06;;;;;;;11.40;7.90;;;;;;;;;;2032419;29;20111;-91
2023/05/09 03:45:07;;;;;;;11.98;8.88;;;;;;;;;;2032034;29;20036;-93
2023/05/09 03:46:08;;;;;;;14.10;9.50;;;;;;;;;;2031565;29;20028;-93
2023/05/09 03:47:08;;;;;;;14.27;8.48;;;;;;;;;;2031270;29;20493;-92
2023/05/09 03:48:10;;;;;;;11.98;8.23;;;;;;;;;;2039261;29;20437;-92
2023/05/09 03:49:10;;;;;;;10.90;8.52;;;;;;;;;;2047778;29;20118;-91
2023/05/09 03:50:14;;;;;;;13.73;9.27;;;;;;;;;;2039106;29;20091;-92
2023/05/09 03:51:14;;;;;;;13.35;8.63;;;;;;;;;;2031465;29;20047;-92
2023/05/09 03:52:15;;;;;;;13.90;8.43;;;;;;;;;;2031313;29;20040;-91
2023/05/09 03:53:15;;;;;;;13.68;9.20;;;;;;;;;;2031423;29;20488;-92
2023/05/09 03:54:16;;;;;;;16.27;9.05;;;;;;;;;;2039110;29;20028;-92
2023/05/09 03:55:18;;;;;;;11.63;8.63;;;;;;;;;;2039450;29;20031;-91
2023/05/09 03:56:19;;;;;;;12.75;9.05;;;;;;;;;;2049874;28;20105;-92
2023/05/09 03:57:22;;;;;;;12.70;8.95;;;;;;;;;;2058151;28;20090;-91
2023/05/09 03:58:22;;;;;;;14.65;9.55;;;;;;;;;;2057841;28;20043;-91
2023/05/09 03:59:23;;;;;;;16.95;10.73;;;;;;;;;;2049413;28;20150;-91
2023/05/09 04:00:26;;;;;;;13.57;9.25;;;;;;;;;;2048868;28;20060;-91
2023/05/09 04:01:27;;;;;;;12.80;8.98;;;;;;;;;;2042742;29;20024;-91
2023/05/09 04:02:27;;;;;;;11.57;8.48;;;;;;;;;;1684897;29;10249698;-92
2023/05/09 04:03:28;;;;;;;12.30;9.00;;;;;;;;;;2034862;29;20040;-91
2023/05/09 04:04:28;;;;;;;12.85;9.30;;;;;;;;;;2031373;29;20357;-91
2023/05/09 04:05:29;;;;;;;12.80;9.15;;;;;;;;;;2039334;29;20051;-91
2023/05/09 04:06:30;;;;;;;15.55;10.13;;;;;;;;;;2047606;29;20050;-90
2023/05/09 04:07:30;;;;;;;13.82;9.73;;;;;;;;;;2048225;29;20050;-89
2023/05/09 04:08:31;;;;;;;14.25;9.55;;;;;;;;;;2043931;29;20043;-91
2023/05/09 04:09:33;;;;;;;13.57;10.18;;;;;;;;;;2034131;29;20024;-91
2023/05/09 04:10:34;;;;;;;12.35;9.45;;;;;;;;;;2039086;29;20054;-92
2023/05/09 04:11:34;;;;;;;11.77;9.18;;;;;;;;;;2031197;29;20441;-92
2023/05/09 04:12:35;;;;;;;15.07;10.07;;;;;;;;;;1692191;29;10001117;-91
2023/05/09 04:13:35;;;;;;;13.07;10.20;;;;;;;;;;2031213;29;20055;-90
2023/05/09 04:14:35;;;;;;;13.60;10.07;;;;;;;;;;2047575;29;20034;-90
2023/05/09 04:15:36;;;;;;;13.00;9.38;;;;;;;;;;2047799;29;20202;-91
2023/05/09 04:16:36;;;;;;;15.68;10.10;;;;;;;;;;2039027;29;20393;-92
2023/05/09 04:17:37;;;;;;;16.45;9.82;;;;;;;;;;2031345;29;20024;-91
2023/05/09 04:18:40;;;;;;;12.23;10.25;;;;;;;;;;2031029;29;20036;-91
2023/05/09 04:19:41;;;;;;;13.35;9.30;;;;;;;;;;2031387;29;20038;-90
2023/05/09 04:20:41;;;;;;;17.13;10.65;;;;;;;;;;2038943;29;20034;-91
2023/05/09 04:21:42;;;;;;;16.08;10.25;;;;;;;;;;2038759;29;20142;-91
2023/05/09 04:22:42;;;;;;;14.23;10.32;;;;;;;;;;2038936;29;20103;-91
2023/05/09 04:23:43;;;;;;;13.43;10.10;;;;;;;;;;2039342;29;20520;-91
2023/05/09 04:24:43;;;;;;;12.73;10.30;;;;;;;;;;2031226;29;20032;-88
2023/05/09 04:25:43;;;;;;;13.25;10.88;;;;;;;;;;2038949;29;20338;-89
2023/05/09 04:26:44;;;;;;;13.85;10.60;;;;;;;;;;2038971;29;20301;-90
2023/05/09 04:27:45;;;;;;;14.55;11.23;;;;;;;;;;2030810;29;20028;-90
2023/05/09 04:28:45;;;;;;;17.65;11.05;;;;;;;;;;2030826;29;20466;-89
2023/05/09 04:29:46;;;;;;;17.85;10.00;;;;;;;;;;2030983;29;20028;-92
2023/05/09 04:30:46;;;;;;;17.38;11.07;;;;;;;;;;2030906;29;20171;-91
2023/05/09 04:31:47;;;;;;;16.50;10.95;;;;;;;;;;2031048;29;20024;-92
2023/05/09 04:32:50;;;;;;;13.90;10.38;;;;;;;;;;2030994;29;20400;-91
2023/05/09 04:33:51;;;;;;;18.58;11.07;;;;;;;;;;2039765;29;20091;-92
2023/05/09 04:34:51;;;;;;;15.00;10.32;;;;;;;;;;2048278;29;20019;-93
2023/05/09 04:35:52;;;;;;;15.73;10.32;;;;;;;;;;2039215;29;20101;-92
2023/05/09 04:36:53;;;;;;;14.20;10.00;;;;;;;;;;2039581;29;20036;-91
2023/05/09 04:37:53;;;;;;;13.68;10.05;;;;;;;;;;2038955;29;20482;-91
2023/05/09 04:38:54;;;;;;;13.18;9.93;;;;;;;;;;2032036;29;20031;-91
2023/05/09 04:39:55;;;;;;;15.55;10.73;;;;;;;;;;2040154;29;20127;-91
2023/05/09 04:40:57;;;;;;;14.48;10.10;;;;;;;;;;2029113;29;20019;-91
2023/05/09 04:41:57;;;;;;;14.52;10.27;;;;;;;;;;1700085;29;10002981;-91
2023/05/09 04:42:58;;;;;;;13.98;10.25;;;;;;;;;;2040587;29;20053;-90
2023/05/09 04:43:58;;;;;;;13.60;10.23;;;;;;;;;;2040167;29;20527;-90
2023/05/09 04:44:59;;;;;;;15.35;10.27;;;;;;;;;;2039941;29;20036;-90
2023/05/09 04:46:02;;;;;;;11.98;9.63;;;;;;;;;;2032719;29;20083;-92
2023/05/09 04:47:03;;;;;;;14.65;10.93;;;;;;;;;;2032605;29;20141;-90
2023/05/09 04:48:04;;;;;;;12.25;10.02;;;;;;;;;;2040422;29;20498;-90
2023/05/09 04:49:05;;;;;;;18.35;10.30;;;;;;;;;;2040350;29;20047;-91
2023/05/09 04:50:06;;;;;;;15.23;10.65;;;;;;;;;;2032627;29;20051;-91
2023/05/09 04:51:07;;;;;;;16.13;10.82;;;;;;;;;;1688626;29;10321592;-92
2023/05/09 04:52:07;;;;;;;17.45;11.10;;;;;;;;;;2032332;29;20159;-93
2023/05/09 04:53:08;;;;;;;17.63;10.98;;;;;;;;;;2032418;29;20020;-90
2023/05/09 04:54:08;;;;;;;12.90;10.18;;;;;;;;;;2040128;29;20032;-89
2023/05/09 04:55:09;;;;;;;14.15;10.40;;;;;;;;;;2039955;29;20024;-89
2023/05/09 04:56:09;;;;;;;13.82;10.68;;;;;;;;;;2032100;29;20095;-91
2023/05/09 04:57:10;;;;;;;12.77;10.07;;;;;;;;;;2040014;29;20075;-91
2023/05/09 04:58:10;;;;;;;16.63;10.85;;;;;;;;;;2032477;29;20448;-89
2023/05/09 04:59:11;;;;;;;20.08;10.57;;;;;;;;;;2032553;29;20509;-89
2023/05/09 05:00:12;;;;;;;15.23;9.70;;;;;;;;;;2043593;29;20039;-89
2023/05/09 05:01:12;;;;;;;17.40;11.00;;;;;;;;;;2042593;29;20050;-89
2023/05/09 05:02:13;;;;;;;14.70;10.35;;;;;;;;;;2032248;29;20189;-90
2023/05/09 05:03:13;;;;;;;19.70;11.95;;;;;;;;;;2032082;29;20096;-89
2023/05/09 05:04:13;;;;;;;16.88;10.10;;;;;;;;;;2039948;29;20051;-89
2023/05/09 05:05:14;;;;;;;15.90;9.90;;;;;;;;;;2040150;29;20046;-88
2023/05/09 05:06:14;;;;;;;14.93;10.23;;;;;;;;;;2040213;29;20039;-92
2023/05/09 05:07:15;;;;;;;16.67;10.70;;;;;;;;;;2031747;29;20020;-89
2023/05/09 05:08:15;;;;;;;17.17;11.10;;;;;;;;;;1698848;29;10001156;-91
2023/05/09 05:09:16;;;;;;;15.52;10.48;;;;;;;;;;2032014;29;20496;-89
2023/05/09 05:10:16;;;;;;;13.30;9.90;;;;;;;;;;2032052;29;20040;-90
2023/05/09 05:11:17;;;;;;;14.60;11.35;;;;;;;;;;2032146;29;20060;-89
2023/05/09 05:12:17;;;;;;;15.63;9.88;;;;;;;;;;2039858;29;20507;-90
2023/05/09 05:13:17;;;;;;;14.13;9.02;;;;;;;;;;2039887;29;20039;-89
2023/05/09 05:14:18;;;;;;;17.42;9.43;;;;;;;;;;2032054;29;20511;-89
2023/05/09 05:15:18;;;;;;;12.82;9.60;;;;;;;;;;2031910;29;20054;-91
2023/05/09 05:16:19;;;;;;;13.63;9.38;;;;;;;;;;2039917;29;20111;-91
2023/05/09 05:17:19;;;;;;;15.80;9.45;;;;;;;;;;2039810;29;20023;-90
2023/05/09 05:18:19;;;;;;;15.63;10.02;;;;;;;;;;2039744;29;20113;-90
2023/05/09 05:19:20;;;;;;;13.05;8.57;;;;;;;;;;2039961;29;20032;-90
2023/05/09 05:20:20;;;;;;;11.20;8.98;;;;;;;;;;2040119;29;20027;-90
2023/05/09 05:21:22;;;;;;;13.77;9.55;;;;;;;;;;2031913;29;20127;-90
2023/05/09 05:22:23;;;;;;;14.57;8.95;;;;;;;;;;2032028;29;20028;-90
2023/05/09 05:23:23;;;;;;;13.20;8.93;;;;;;;;;;2039819;29;20023;-90
2023/05/09 05:24:24;;;;;;;13.70;8.77;;;;;;;;;;2043755;29;20035;-91
2023/05/09 05:25:25;;;;;;;10.73;8.68;;;;;;;;;;2048643;29;20038;-89
2023/05/09 05:26:26;;;;;;;10.98;8.13;;;;;;;;;;2039914;29;20024;-89
2023/05/09 05:27:26;;;;;;;15.32;8.80;;;;;;;;;;2031650;29;20039;-89
2023/05/09 05:28:27;;;;;;;12.50;7.90;;;;;;;;;;2039710;29;20123;-90
2023/05/09 05:29:27;;;;;;;13.55;8.23;;;;;;;;;;2039940;29;20032;-90
2023/05/09 05:30:27;;;;;;;13.90;8.52;;;;;;;;;;2031742;29;20083;-90
2023/05/09 05:31:28;;;;;;;13.70;8.15;;;;;;;;;;2031829;29;20024;-89
2023/05/09 05:32:28;;;;;;;12.73;8.38;;;;;;;;;;2039775;29;20567;-90
2023/05/09 05:33:28;;;;;;;10.70;8.85;;;;;;;;;;2048265;29;20046;-90
2023/05/09 05:34:29;;;;;;;14.85;9.27;;;;;;;;;;2039744;29;20443;-90
2023/05/09 05:35:29;;;;;;;10.23;7.45;;;;;;;;;;2039738;29;20094;-90
2023/05/09 05:36:31;;;;;;;11.38;7.35;;;;;;;;;;2048311;29;20494;-90
2023/05/09 05:37:31;;;;;;;9.57;7.82;;;;;;;;;;2048205;29;20034;-90
2023/05/09 05:38:31;;;;;;;10.38;7.35;;;;;;;;;;2039613;29;20130;-90
2023/05/09 05:39:32;;;;;;;16.40;9.38;;;;;;;;;;2039895;29;20046;-90
2023/05/09 05:40:32;;;;;;;11.05;8.25;;;;;;;;;;2039723;29;20484;-89
2023/05/09 05:41:33;;;;;;;10.65;7.00;;;;;;;;;;2039786;29;20057;-89
2023/05/09 05:42:33;;;;;;;16.83;7.82;;;;;;;;;;2048473;29;20042;-90
2023/05/09 05:43:34;;;;;;;10.60;8.13;;;;;;;;;;2048285;29;20031;-89
2023/05/09 05:44:35;;;;;;;15.25;7.95;;;;;;;;;;1854492;29;5001266;-90
2023/05/09 05:45:35;;;;;;;15.10;7.55;;;;;;;;;;2048103;29;20545;-90
2023/05/09 05:46:35;;;;;;;12.00;7.55;;;;;;;;;;2048695;29;20019;-89
2023/05/09 05:47:36;;;;;;;11.05;7.55;;;;;;;;;;2048146;28;20023;-88
2023/05/09 05:48:36;;;;;;;11.00;7.85;;;;;;;;;;2052734;28;20109;-89
2023/05/09 05:49:37;;;;;;;13.25;8.63;;;;;;;;;;2056088;28;20377;-89
2023/05/09 05:50:37;;;;;;;11.13;7.30;;;;;;;;;;2054571;28;20395;-88
2023/05/09 05:51:41;;;;;;;14.50;7.85;;;;;;;;;;1395138;28;10048887;-86
2023/05/09 05:52:45;;;;;;;17.00;9.48;;;;;;;;;;2056521;28;20235;-87
2023/05/09 05:53:45;;;;;;;13.35;8.25;;;;;;;;;;2056114;28;20143;-88
2023/05/09 05:54:45;;;;;;;10.48;7.85;;;;;;;;;;2055936;28;20143;-88
2023/05/09 05:55:49;;;;;;;14.75;8.52;;;;;;;;;;2056072;28;20505;-87
2023/05/09 05:56:49;;;;;;;10.80;7.15;;;;;;;;;;2056141;28;20030;-87
2023/05/09 05:57:50;;;;;;;14.75;7.88;;;;;;;;;;2056077;28;20026;-89
2023/05/09 05:58:50;;;;;;;12.68;7.90;;;;;;;;;;2056088;28;20058;-89
2023/05/09 05:59:51;;;;;;;16.17;9.18;;;;;;;;;;2055890;28;20062;-89
2023/05/09 06:00:51;;;;;;;11.48;8.32;;;;;;;;;;2047654;29;20070;-89
2023/05/09 06:01:52;;;;;;;12.45;8.35;;;;;;;;;;2048144;29;20047;-89